Time;durP1;ratioP1;P1;durP2;ratioP2;P2;SDS_P1;SDS_P2;PMS_P1;PMS_P2;Temp;Humidity;BMP_temperature;BMP_pressure;BME280_temperature;BME280_humidity;BME280_pressure;Samples;Min_cycle;Max_cycle;Signal;HPM_P1;HPM_P2
2022/07/13 00:01:15;;;;;;;3.35;2.47;;;20.80;99.90;;;;;;5125579;27;20054;-58
2022/07/13 00:03:41;;;;;;;4.18;2.92;;;20.80;99.90;;;;;;5126164;27;20477;-57
2022/07/13 00:06:07;;;;;;;3.22;2.40;;;20.70;99.90;;;;;;5106457;27;20439;-57
2022/07/13 00:08:33;;;;;;;3.97;2.55;;;20.70;99.90;;;;;;5124444;27;20554;-57
2022/07/13 00:10:59;;;;;;;3.90;3.03;;;20.70;99.90;;;;;;5106754;27;20172;-57
2022/07/13 00:13:25;;;;;;;3.47;2.70;;;20.70;99.90;;;;;;5125406;27;20059;-57
2022/07/13 00:15:50;;;;;;;4.93;3.00;;;20.80;99.90;;;;;;5125436;27;20092;-57
2022/07/13 00:18:16;;;;;;;5.00;3.10;;;20.70;99.90;;;;;;5124512;27;20103;-57
2022/07/13 00:20:43;;;;;;;5.18;3.22;;;20.70;99.90;;;;;;5125921;27;20100;-57
2022/07/13 00:23:09;;;;;;;5.38;3.00;;;20.70;99.90;;;;;;5124797;27;20093;-57
2022/07/13 00:25:34;;;;;;;5.40;2.80;;;20.70;99.90;;;;;;5124768;27;20079;-57
2022/07/13 00:28:00;;;;;;;3.83;2.70;;;20.70;99.90;;;;;;5125428;27;20040;-57
2022/07/13 00:30:26;;;;;;;7.45;2.92;;;20.70;99.90;;;;;;5125217;27;20047;-57
2022/07/13 00:32:51;;;;;;;5.07;2.72;;;20.60;99.90;;;;;;5125111;27;20126;-57
2022/07/13 00:35:17;;;;;;;3.80;2.95;;;20.60;99.90;;;;;;5105740;27;20051;-57
2022/07/13 00:37:43;;;;;;;4.03;2.70;;;20.60;99.90;;;;;;5106628;27;20043;-59
2022/07/13 00:40:09;;;;;;;4.28;3.20;;;20.50;99.90;;;;;;5125109;27;20120;-57
2022/07/13 00:42:35;;;;;;;4.00;3.20;;;20.50;99.90;;;;;;5106339;27;20508;-58
2022/07/13 00:45:01;;;;;;;6.97;3.17;;;20.50;99.90;;;;;;5124262;27;20058;-57
2022/07/13 00:47:31;;;;;;;3.63;2.72;;;20.50;99.90;;;;;;5124640;27;20523;-57
2022/07/13 00:49:59;;;;;;;4.47;3.40;;;20.40;99.90;;;;;;5124805;27;20035;-57
2022/07/13 00:52:25;;;;;;;4.30;2.92;;;20.40;99.90;;;;;;5123699;27;20043;-58
2022/07/13 00:54:51;;;;;;;3.78;3.20;;;20.40;99.90;;;;;;5124030;27;20111;-57
2022/07/13 00:57:17;;;;;;;6.57;3.38;;;20.40;99.90;;;;;;5124362;27;20077;-54
2022/07/13 00:59:43;;;;;;;3.70;3.03;;;20.40;99.90;;;;;;5106703;27;20050;-57
2022/07/13 01:02:08;;;;;;;4.55;3.50;;;20.40;99.90;;;;;;5105526;27;20054;-57
2022/07/13 01:04:34;;;;;;;3.75;2.90;;;20.40;99.90;;;;;;5124637;27;20126;-57
2022/07/13 01:07:00;;;;;;;4.90;3.33;;;20.40;99.90;;;;;;5124064;27;20358;-58
2022/07/13 01:09:26;;;;;;;4.05;3.40;;;20.30;99.90;;;;;;5123196;27;20043;-58
2022/07/13 01:11:53;;;;;;;6.32;3.55;;;20.30;99.90;;;;;;5124376;27;20064;-57
2022/07/13 01:14:18;;;;;;;4.22;3.63;;;20.30;99.90;;;;;;5123929;27;20065;-57
2022/07/13 01:16:44;;;;;;;4.57;3.78;;;20.40;99.90;;;;;;5124707;27;20123;-57
2022/07/13 01:19:12;;;;;;;4.38;3.42;;;20.40;99.90;;;;;;5104949;27;20051;-57
2022/07/13 01:21:44;;;;;;;5.75;3.63;;;20.40;99.90;;;;;;5124536;27;20062;-57
2022/07/13 01:24:10;;;;;;;5.15;3.97;;;20.40;99.90;;;;;;5123483;27;20047;-57
2022/07/13 01:26:39;;;;;;;6.32;4.32;;;20.40;99.90;;;;;;5123282;27;20050;-58
2022/07/13 01:29:06;;;;;;;7.63;4.20;;;20.40;99.90;;;;;;5124054;27;20039;-58
2022/07/13 01:31:36;;;;;;;6.22;3.85;;;20.40;99.90;;;;;;5124057;27;20035;-59
2022/07/13 01:34:03;;;;;;;4.38;3.95;;;20.40;99.90;;;;;;5123914;27;20047;-58
2022/07/13 01:36:29;;;;;;;5.30;4.18;;;20.40;99.90;;;;;;5105029;27;20047;-57
2022/07/13 01:38:57;;;;;;;6.20;4.00;;;20.40;99.90;;;;;;5123189;27;20504;-58
2022/07/13 01:41:24;;;;;;;5.15;3.95;;;20.30;99.90;;;;;;5123870;27;20039;-57
2022/07/13 01:43:50;;;;;;;6.68;4.45;;;20.40;99.90;;;;;;5122877;27;20054;-58
2022/07/13 01:46:16;;;;;;;4.95;4.40;;;20.40;99.90;;;;;;5123841;27;20043;-58
2022/07/13 01:48:42;;;;;;;7.13;4.40;;;20.40;99.90;;;;;;5124232;27;20065;-57
2022/07/13 01:51:08;;;;;;;5.07;4.35;;;20.40;99.90;;;;;;5123981;27;20493;-57
2022/07/13 01:53:33;;;;;;;6.28;4.55;;;20.40;99.90;;;;;;5122106;27;20045;-57
2022/07/13 01:55:59;;;;;;;7.13;4.40;;;20.40;99.90;;;;;;5123633;27;20039;-57
2022/07/13 01:58:26;;;;;;;5.43;4.55;;;20.40;99.90;;;;;;5123478;27;20496;-57
2022/07/13 02:00:52;;;;;;;5.82;4.40;;;20.30;99.90;;;;;;5123540;27;20054;-57
2022/07/13 02:03:19;;;;;;;6.15;4.20;;;20.30;99.90;;;;;;5121957;27;20538;-56
2022/07/13 02:05:45;;;;;;;5.72;4.70;;;20.40;99.90;;;;;;5123164;27;20035;-57
2022/07/13 02:08:11;;;;;;;5.70;4.75;;;20.30;99.90;;;;;;5123086;27;20042;-58
2022/07/13 02:10:37;;;;;;;9.32;5.03;;;20.30;99.90;;;;;;5122288;27;20035;-57
2022/07/13 02:13:08;;;;;;;5.43;4.82;;;20.30;99.90;;;;;;5123423;27;20035;-57
2022/07/13 02:15:34;;;;;;;5.90;4.82;;;20.30;99.90;;;;;;5104800;27;20043;-57
2022/07/13 02:18:00;;;;;;;6.60;5.18;;;20.30;99.90;;;;;;5122821;27;20051;-56
2022/07/13 02:20:26;;;;;;;8.15;5.50;;;20.30;99.90;;;;;;5122575;27;20066;-57
2022/07/13 02:22:52;;;;;;;6.55;5.53;;;20.30;99.90;;;;;;5122463;27;20055;-58
2022/07/13 02:25:18;;;;;;;6.93;5.22;;;20.30;99.90;;;;;;5104055;27;20258;-57
2022/07/13 02:27:44;;;;;;;7.45;5.57;;;20.30;99.90;;;;;;5123062;27;20047;-58
2022/07/13 02:30:11;;;;;;;6.10;5.50;;;20.30;99.90;;;;;;5122812;27;20070;-57
2022/07/13 02:32:37;;;;;;;6.40;5.63;;;20.30;99.90;;;;;;5122849;27;20047;-57
2022/07/13 02:35:04;;;;;;;6.38;5.72;;;20.30;99.90;;;;;;5122513;27;20075;-57
2022/07/13 02:37:29;;;;;;;7.28;6.07;;;20.30;99.90;;;;;;5121278;27;20082;-58
2022/07/13 02:39:56;;;;;;;6.95;6.13;;;20.30;99.90;;;;;;5104016;27;20047;-58
2022/07/13 02:42:25;;;;;;;8.48;5.90;;;20.30;99.90;;;;;;5122624;27;20031;-57
2022/07/13 02:44:51;;;;;;;6.90;6.20;;;20.30;99.90;;;;;;5122000;27;20071;-58
2022/07/13 02:47:17;;;;;;;8.38;6.30;;;20.30;99.90;;;;;;5122400;27;20110;-57
2022/07/13 02:49:43;;;;;;;8.10;6.35;;;20.20;99.90;;;;;;5122823;27;20062;-57
2022/07/13 02:52:09;;;;;;;7.32;6.55;;;20.20;99.90;;;;;;5122653;27;20070;-58
2022/07/13 02:54:35;;;;;;;9.30;6.90;;;20.20;99.90;;;;;;5120627;27;20035;-58
2022/07/13 02:57:00;;;;;;;7.68;6.78;;;20.20;99.90;;;;;;5122648;27;20541;-58
2022/07/13 02:59:26;;;;;;;9.90;6.63;;;20.10;99.90;;;;;;5122321;27;20396;-57
2022/07/13 03:01:52;;;;;;;7.88;6.50;;;20.10;99.90;;;;;;5122447;27;20054;-58
2022/07/13 03:04:17;;;;;;;8.57;6.95;;;20.10;99.90;;;;;;5121590;27;20398;-56
2022/07/13 03:06:45;;;;;;;8.95;7.72;;;20.10;99.90;;;;;;5121776;27;20050;-57
2022/07/13 03:09:10;;;;;;;9.20;7.40;;;20.10;99.90;;;;;;5113229;27;20055;-58
2022/07/13 03:11:36;;;;;;;8.80;7.90;;;20.00;99.90;;;;;;5122095;27;20227;-58
2022/07/13 03:14:02;;;;;;;8.45;7.47;;;20.10;99.90;;;;;;5121617;27;20055;-57
2022/07/13 03:16:27;;;;;;;8.90;8.05;;;20.00;99.90;;;;;;5122009;27;20042;-57
2022/07/13 03:18:54;;;;;;;9.88;8.18;;;20.00;99.90;;;;;;5121977;27;20561;-57
2022/07/13 03:21:20;;;;;;;11.55;8.57;;;20.00;99.90;;;;;;5121203;28;20093;-57
2022/07/13 03:23:45;;;;;;;10.93;8.18;;;20.00;99.90;;;;;;5121785;28;20039;-57
2022/07/13 03:26:11;;;;;;;11.40;8.52;;;19.90;99.90;;;;;;5122605;28;20059;-58
2022/07/13 03:28:37;;;;;;;10.55;8.07;;;19.90;99.90;;;;;;5121656;28;20038;-57
2022/07/13 03:31:02;;;;;;;10.18;8.88;;;19.90;99.90;;;;;;5121682;28;20127;-57
2022/07/13 03:33:28;;;;;;;10.45;8.02;;;19.90;99.90;;;;;;5121864;28;20046;-57
2022/07/13 03:35:54;;;;;;;11.32;8.65;;;20.30;99.90;;;;;;5103853;28;20042;-57
2022/07/13 03:38:20;;;;;;;9.95;8.10;;;19.90;99.90;;;;;;5120721;28;20047;-57
2022/07/13 03:40:47;;;;;;;11.32;8.50;;;19.90;99.90;;;;;;5121410;28;20201;-57
2022/07/13 03:43:13;;;;;;;10.00;8.60;;;19.90;99.90;;;;;;5122066;28;20047;-57
2022/07/13 03:45:39;;;;;;;9.40;8.50;;;19.90;99.90;;;;;;5121570;28;20043;-57
2022/07/13 03:48:05;;;;;;;11.18;8.75;;;19.90;99.90;;;;;;5121222;28;20401;-57
2022/07/13 03:50:31;;;;;;;10.00;8.52;;;19.80;99.90;;;;;;5121757;28;20039;-58
2022/07/13 03:52:57;;;;;;;9.13;8.13;;;19.80;99.90;;;;;;5120847;28;20043;-57
2022/07/13 03:55:23;;;;;;;10.32;8.50;;;19.80;99.90;;;;;;5121697;28;20049;-58
2022/07/13 03:57:48;;;;;;;8.90;7.97;;;19.90;99.90;;;;;;5121548;28;20035;-57
2022/07/13 04:00:14;;;;;;;9.65;8.55;;;19.80;99.90;;;;;;5122074;28;20043;-57
2022/07/13 04:02:40;;;;;;;9.52;8.45;;;19.80;99.90;;;;;;5121765;28;20035;-57
2022/07/13 04:05:06;;;;;;;10.32;7.88;;;19.80;99.90;;;;;;5121843;28;20062;-57
2022/07/13 04:07:32;;;;;;;14.00;8.50;;;19.90;99.90;;;;;;5119589;28;20416;-57
2022/07/13 04:09:57;;;;;;;9.43;8.32;;;19.80;99.90;;;;;;5121371;28;20039;-57
2022/07/13 04:12:23;;;;;;;9.90;7.93;;;19.80;99.90;;;;;;5121770;28;20043;-57
2022/07/13 04:14:50;;;;;;;9.00;7.72;;;19.90;99.90;;;;;;5121547;28;20504;-57
2022/07/13 04:17:15;;;;;;;9.57;7.68;;;19.90;99.90;;;;;;5121447;28;20235;-58
2022/07/13 04:19:41;;;;;;;9.27;7.93;;;19.90;99.90;;;;;;5103159;28;20054;-57
2022/07/13 04:22:07;;;;;;;9.20;7.80;;;19.90;99.90;;;;;;5120718;28;20134;-57
2022/07/13 04:24:33;;;;;;;11.75;7.95;;;19.90;99.90;;;;;;5102804;27;20135;-57
2022/07/13 04:26:58;;;;;;;8.93;7.30;;;19.90;99.90;;;;;;5124214;27;20534;-57
2022/07/13 04:29:24;;;;;;;8.55;7.38;;;19.90;99.90;;;;;;5125321;27;20493;-57
2022/07/13 04:31:50;;;;;;;9.20;7.70;;;19.90;99.90;;;;;;5106621;27;20073;-58
2022/07/13 04:34:16;;;;;;;9.88;7.60;;;19.90;99.90;;;;;;5124661;27;20412;-58
2022/07/13 04:36:43;;;;;;;8.50;7.60;;;19.90;99.90;;;;;;5125213;27;20617;-56
2022/07/13 04:39:09;;;;;;;11.20;7.40;;;19.90;99.90;;;;;;5106087;27;20051;-57
2022/07/13 04:41:35;;;;;;;8.70;7.55;;;19.90;99.90;;;;;;5124755;27;20039;-57
2022/07/13 04:44:01;;;;;;;8.63;7.57;;;19.90;99.90;;;;;;5124270;27;20417;-56
2022/07/13 04:46:27;;;;;;;10.95;8.13;;;20.00;99.90;;;;;;5105994;27;20059;-57
2022/07/13 04:48:53;;;;;;;8.73;7.68;;;19.90;99.90;;;;;;5125174;27;20051;-58
2022/07/13 04:51:18;;;;;;;9.68;7.70;;;19.90;99.90;;;;;;5105287;27;20091;-57
2022/07/13 04:53:45;;;;;;;9.00;7.60;;;19.90;99.90;;;;;;5124520;27;20044;-56
2022/07/13 04:56:11;;;;;;;10.32;7.78;;;19.90;99.90;;;;;;5125421;27;20401;-56
2022/07/13 04:58:37;;;;;;;10.23;7.20;;;19.90;99.90;;;;;;5124328;27;20111;-57
2022/07/13 05:01:07;;;;;;;8.70;7.50;;;20.00;99.90;;;;;;5106071;27;20039;-57
2022/07/13 05:03:36;;;;;;;9.23;7.72;;;20.00;99.90;;;;;;5124630;27;20046;-57
2022/07/13 05:06:02;;;;;;;8.15;7.30;;;20.00;99.90;;;;;;5124253;27;20159;-57
2022/07/13 05:08:28;;;;;;;7.90;7.07;;;20.00;99.90;;;;;;5122925;27;20046;-57
2022/07/13 05:10:54;;;;;;;8.35;7.55;;;20.00;99.90;;;;;;5124386;27;20066;-59
2022/07/13 05:13:19;;;;;;;9.40;7.50;;;20.10;99.90;;;;;;5124106;27;20067;-57
2022/07/13 05:15:45;;;;;;;8.88;7.57;;;20.10;99.90;;;;;;5124722;27;20042;-57
2022/07/13 05:18:11;;;;;;;14.82;7.70;;;20.10;99.90;;;;;;5123755;27;20610;-57
2022/07/13 05:20:37;;;;;;;10.05;7.97;;;20.10;99.90;;;;;;5123973;27;20051;-57
2022/07/13 05:23:04;;;;;;;8.27;7.45;;;20.10;99.90;;;;;;5123472;27;20036;-57
2022/07/13 05:25:29;;;;;;;8.30;7.05;;;20.10;99.90;;;;;;5123996;27;20049;-57
2022/07/13 05:27:55;;;;;;;12.27;7.63;;;20.20;99.90;;;;;;5123455;27;20050;-57
2022/07/13 05:30:21;;;;;;;12.80;8.20;;;20.10;99.90;;;;;;5124288;27;20378;-56
2022/07/13 05:32:47;;;;;;;9.52;7.80;;;20.20;99.90;;;;;;5123422;27;20039;-58
2022/07/13 05:35:13;;;;;;;9.05;8.15;;;20.20;99.90;;;;;;5123863;27;20039;-57
2022/07/13 05:37:38;;;;;;;9.63;8.40;;;20.20;99.90;;;;;;5123027;27;20055;-57
2022/07/13 05:40:05;;;;;;;11.60;8.40;;;20.20;99.90;;;;;;5123577;27;20138;-57
2022/07/13 05:42:31;;;;;;;9.23;8.02;;;20.20;99.90;;;;;;5123604;27;20035;-57
2022/07/13 05:44:57;;;;;;;10.45;8.60;;;20.20;99.90;;;;;;5123147;27;20478;-56
2022/07/13 05:47:23;;;;;;;9.23;8.25;;;20.20;99.90;;;;;;5123312;27;20050;-57
2022/07/13 05:49:48;;;;;;;11.27;8.10;;;20.10;99.90;;;;;;5123793;27;20043;-58
2022/07/13 05:52:15;;;;;;;10.75;8.88;;;20.10;99.90;;;;;;5122978;27;20035;-57
2022/07/13 05:54:40;;;;;;;9.57;8.40;;;20.10;99.90;;;;;;5123264;27;20047;-58
2022/07/13 05:57:06;;;;;;;10.23;8.30;;;20.20;99.90;;;;;;5123535;27;20031;-58
2022/07/13 05:59:33;;;;;;;9.63;7.78;;;20.20;99.90;;;;;;5122882;27;20104;-58
2022/07/13 06:01:59;;;;;;;12.18;8.15;;;20.20;99.90;;;;;;5123126;27;20122;-57
2022/07/13 06:04:25;;;;;;;9.95;8.20;;;20.30;99.90;;;;;;5122852;27;20046;-57
2022/07/13 06:06:51;;;;;;;9.18;7.65;;;20.50;99.90;;;;;;5103903;27;20058;-58
2022/07/13 06:09:16;;;;;;;11.52;7.60;;;20.30;99.90;;;;;;5122834;27;20085;-57
2022/07/13 06:11:42;;;;;;;8.88;7.40;;;20.40;99.90;;;;;;5123212;27;20035;-57
2022/07/13 06:14:09;;;;;;;9.50;8.25;;;20.30;99.90;;;;;;5123138;27;20050;-58
2022/07/13 06:16:35;;;;;;;10.07;7.97;;;20.30;99.90;;;;;;5122776;27;20431;-57
2022/07/13 06:19:01;;;;;;;11.18;7.80;;;20.40;99.90;;;;;;5122834;27;20115;-57
2022/07/13 06:21:27;;;;;;;10.25;8.27;;;20.50;99.90;;;;;;5122137;27;20039;-57
2022/07/13 06:23:53;;;;;;;8.98;7.97;;;20.50;99.90;;;;;;5104072;27;20145;-56
2022/07/13 06:26:19;;;;;;;11.95;7.88;;;20.50;99.90;;;;;;5122495;27;20126;-56
2022/07/13 06:28:44;;;;;;;7.68;6.55;;;20.60;99.90;;;;;;5123441;27;20060;-56
2022/07/13 06:31:10;;;;;;;8.45;6.50;;;20.70;99.90;;;;;;5122298;27;20047;-56
2022/07/13 06:33:36;;;;;;;8.02;6.38;;;20.60;99.90;;;;;;5104314;27;20047;-57
2022/07/13 06:36:02;;;;;;;8.05;6.55;;;20.60;99.90;;;;;;5122181;27;20205;-56
2022/07/13 06:38:28;;;;;;;11.95;6.47;;;20.70;99.90;;;;;;5121110;27;20050;-57
2022/07/13 06:40:53;;;;;;;7.35;5.82;;;20.70;99.90;;;;;;5104022;27;20615;-57
2022/07/13 06:43:19;;;;;;;8.35;6.53;;;20.80;99.90;;;;;;5122354;27;20482;-56
2022/07/13 06:45:45;;;;;;;10.13;6.30;;;20.80;99.90;;;;;;5122788;27;20054;-57
2022/07/13 06:48:10;;;;;;;7.53;5.90;;;20.90;99.90;;;;;;5121273;27;20039;-57
2022/07/13 06:50:36;;;;;;;8.98;6.43;;;21.00;99.90;;;;;;5122433;27;20043;-57
2022/07/13 06:53:02;;;;;;;8.93;5.65;;;21.00;99.90;;;;;;5103097;27;20432;-56
2022/07/13 06:55:28;;;;;;;7.05;6.35;;;21.00;99.90;;;;;;5122099;27;20600;-57
2022/07/13 06:57:55;;;;;;;10.10;6.18;;;21.10;99.90;;;;;;5103754;27;20043;-57
2022/07/13 07:00:21;;;;;;;8.30;6.85;;;21.20;99.90;;;;;;5122000;27;20047;-57
2022/07/13 07:02:47;;;;;;;8.90;6.32;;;21.20;99.90;;;;;;5122541;27;20035;-57
2022/07/13 07:05:13;;;;;;;7.43;6.40;;;21.30;99.90;;;;;;5122041;27;20049;-59
2022/07/13 07:07:40;;;;;;;8.07;6.53;;;21.40;99.90;;;;;;5120943;27;20127;-57
2022/07/13 07:10:07;;;;;;;7.65;6.68;;;21.50;99.90;;;;;;5121969;27;20504;-57
2022/07/13 07:12:32;;;;;;;7.03;6.20;;;21.60;99.90;;;;;;5122064;27;20087;-56
2022/07/13 07:14:58;;;;;;;8.65;6.07;;;21.80;99.90;;;;;;5121294;27;20130;-57
2022/07/13 07:17:24;;;;;;;10.35;7.10;;;22.00;99.90;;;;;;5121980;27;20039;-57
2022/07/13 07:19:49;;;;;;;10.95;6.75;;;22.40;99.90;;;;;;5101988;27;20055;-57
2022/07/13 07:22:15;;;;;;;8.02;7.22;;;22.50;99.90;;;;;;5101731;28;20086;-57
2022/07/13 07:24:41;;;;;;;8.73;6.93;;;22.70;99.90;;;;;;5101137;28;20517;-57
2022/07/13 07:27:10;;;;;;;8.82;6.72;;;22.80;99.90;;;;;;5101711;28;20713;-57
2022/07/13 07:29:36;;;;;;;8.63;6.50;;;23.00;99.90;;;;;;5101418;28;20480;-58
2022/07/13 07:32:01;;;;;;;8.73;7.82;;;23.30;99.90;;;;;;5083042;28;20447;-59
2022/07/13 07:34:28;;;;;;;9.35;8.07;;;23.40;99.90;;;;;;5100961;28;20048;-60
2022/07/13 07:36:54;;;;;;;9.15;8.20;;;23.40;99.90;;;;;;5100798;28;20044;-59
2022/07/13 07:39:21;;;;;;;12.63;7.30;;;23.50;99.90;;;;;;5083071;28;20066;-59
2022/07/13 07:41:47;;;;;;;11.30;7.60;;;23.70;99.90;;;;;;5082624;28;20044;-59
2022/07/13 07:44:13;;;;;;;9.90;7.57;;;23.50;99.90;;;;;;5101604;28;20587;-60
2022/07/13 07:46:39;;;;;;;11.90;7.05;;;23.40;99.90;;;;;;5101340;28;20169;-60
2022/07/13 07:49:05;;;;;;;9.95;7.55;;;23.70;99.90;;;;;;5101328;28;20502;-60
2022/07/13 07:51:31;;;;;;;10.57;8.20;;;23.80;99.90;;;;;;5100367;28;20414;-59
2022/07/13 07:53:56;;;;;;;10.60;8.23;;;23.50;99.90;;;;;;5083018;28;20048;-58
2022/07/13 07:56:23;;;;;;;14.75;7.40;;;23.80;99.90;;;;;;5101305;28;20031;-58
2022/07/13 07:58:49;;;;;;;11.65;7.45;;;24.30;99.90;;;;;;5100955;28;20502;-62
2022/07/13 08:01:14;;;;;;;12.52;8.20;;;24.40;99.90;;;;;;5085335;28;20036;-58
2022/07/13 08:03:40;;;;;;;11.52;7.47;;;24.20;99.90;;;;;;5105125;28;20055;-57
2022/07/13 08:06:06;;;;;;;13.70;8.85;;;24.40;99.90;;;;;;5108386;27;20492;-57
2022/07/13 08:08:32;;;;;;;11.02;8.63;;;24.70;99.90;;;;;;5124013;27;20039;-57
2022/07/13 08:10:58;;;;;;;11.35;8.23;;;24.80;99.90;;;;;;5106790;27;20115;-58
2022/07/13 08:13:24;;;;;;;10.20;7.88;;;25.00;99.90;;;;;;5125114;27;20064;-57
2022/07/13 08:15:49;;;;;;;12.90;7.57;;;25.30;99.90;;;;;;5125400;27;20035;-57
2022/07/13 08:18:15;;;;;;;12.50;8.30;;;25.60;99.90;;;;;;5125114;27;20055;-57
2022/07/13 08:20:41;;;;;;;10.30;8.20;;;25.30;99.90;;;;;;5125473;27;20669;-57
2022/07/13 08:23:50;;;;;;;9.60;7.93;;;25.30;99.90;;;;;;5109857;27;20112;-57
2022/07/13 08:25:52;;;;;;;12.18;7.70;;;25.40;99.90;;;;;;5085373;28;20051;-61
2022/07/13 08:28:18;;;;;;;9.93;7.93;;;25.60;99.90;;;;;;5104586;28;20415;-57
2022/07/13 08:30:44;;;;;;;10.80;7.30;;;25.70;99.90;;;;;;5104868;28;20130;-59
2022/07/13 08:33:10;;;;;;;10.00;7.75;;;25.80;99.90;;;;;;5104802;28;20036;-57
2022/07/13 08:38:40;;;;;;;9.68;7.90;;;25.50;99.90;;;;;;5103598;28;20044;-57
2022/07/13 08:41:06;;;;;;;9.93;8.10;;;25.40;99.90;;;;;;5104147;28;20756;-57
2022/07/13 08:43:33;;;;;;;10.50;7.13;;;25.20;99.90;;;;;;5104442;28;20044;-57
2022/07/13 08:46:02;;;;;;;10.60;6.60;;;25.50;99.90;;;;;;5104607;28;20057;-57
2022/07/13 08:48:33;;;;;;;10.15;6.80;;;25.80;99.90;;;;;;5104299;28;20053;-58
2022/07/13 08:50:59;;;;;;;10.02;6.22;;;25.80;99.90;;;;;;5085896;28;20117;-58
2022/07/13 08:53:25;;;;;;;10.57;6.90;;;25.90;99.90;;;;;;5103746;28;20778;-57
2022/07/13 08:55:51;;;;;;;11.07;7.13;;;25.90;99.90;;;;;;5103827;28;20558;-57
2022/07/13 08:58:17;;;;;;;7.22;6.00;;;25.90;99.90;;;;;;5104031;28;20059;-60
2022/07/13 09:00:43;;;;;;;7.25;5.57;;;26.20;99.90;;;;;;5104517;28;20057;-57
2022/07/13 09:03:10;;;;;;;9.32;6.15;;;26.60;99.90;;;;;;5103383;28;20047;-57
2022/07/13 09:05:35;;;;;;;9.32;5.50;;;26.60;99.90;;;;;;5103757;28;20367;-58
2022/07/13 09:08:06;;;;;;;10.82;5.32;;;26.30;99.90;;;;;;5102506;27;21058;-57
2022/07/13 09:10:49;;;;;;;7.95;5.07;;;26.60;99.90;;;;;;5123823;27;20047;-58
2022/07/13 09:13:42;;;;;;;8.73;5.50;;;27.20;99.90;;;;;;5124160;27;20456;-58
2022/07/13 09:16:19;;;;;;;7.57;4.85;;;27.40;99.90;;;;;;5121799;27;20050;-58
2022/07/13 09:18:47;;;;;;;7.20;4.07;;;27.40;99.90;;;;;;5122471;27;20158;-57
2022/07/13 09:21:13;;;;;;;5.45;4.32;;;27.50;99.90;;;;;;5122094;27;20035;-59
2022/07/13 09:23:39;;;;;;;7.10;4.30;;;27.50;99.90;;;;;;5121511;27;20035;-57
2022/07/13 09:26:06;;;;;;;6.43;3.88;;;27.50;99.90;;;;;;5123031;27;20053;-58
2022/07/13 09:28:45;;;;;;;7.00;3.72;;;27.30;99.90;;;;;;5122514;27;20054;-57
2022/07/13 09:31:12;;;;;;;8.23;4.10;;;27.50;99.90;;;;;;5123065;27;20443;-59
2022/07/13 09:33:39;;;;;;;6.75;4.20;;;27.70;99.90;;;;;;5123131;27;20043;-57
2022/07/13 09:36:16;;;;;;;6.43;4.25;;;28.00;99.90;;;;;;5104637;27;20047;-58
2022/07/13 09:38:43;;;;;;;6.32;4.95;;;27.70;99.90;;;;;;5122752;27;20088;-58
2022/07/13 09:41:18;;;;;;;6.45;4.47;;;27.50;99.90;;;;;;5123324;27;20437;-57
2022/07/13 09:46:57;;;;;;;7.53;3.47;;;27.90;99.90;;;;;;5123322;27;20413;-58
2022/07/13 09:49:41;;;;;;;8.27;3.92;;;28.50;99.90;;;;;;5122991;27;20659;-57
2022/07/13 09:52:08;;;;;;;7.68;4.32;;;28.50;99.90;;;;;;5122006;27;20047;-57
2022/07/13 09:54:37;;;;;;;3.88;2.50;;;28.30;99.90;;;;;;5123011;27;20088;-57
2022/07/13 09:57:05;;;;;;;5.35;3.00;;;28.40;99.90;;;;;;5122830;27;20091;-57
2022/07/13 09:59:31;;;;;;;4.85;2.65;;;28.20;99.90;;;;;;5122460;27;20089;-57
2022/07/13 10:01:57;;;;;;;5.03;2.85;;;28.70;99.90;;;;;;5115461;27;20533;-58
2022/07/13 10:04:24;;;;;;;3.80;2.40;;;28.90;99.90;;;;;;5121441;27;20095;-58
2022/07/13 10:06:50;;;;;;;6.32;2.42;;;29.00;99.90;;;;;;5103189;27;20047;-58
2022/07/13 10:09:31;;;;;;;4.07;2.38;;;29.20;99.90;;;;;;5122316;27;20046;-58
2022/07/13 10:11:58;;;;;;;6.63;2.55;;;29.20;99.90;;;;;;5103338;27;20079;-58
2022/07/13 10:14:26;;;;;;;3.63;2.55;;;29.10;99.90;;;;;;5122217;27;20039;-57
2022/07/13 10:16:58;;;;;;;7.65;2.95;;;28.90;99.90;;;;;;5122035;27;20054;-57
2022/07/13 10:19:24;;;;;;;3.92;2.42;;;28.90;99.90;;;;;;5106755;27;20375;-58
2022/07/13 10:22:11;;;;;;;7.60;2.70;;;29.20;99.90;;;;;;5101200;28;20051;-58
2022/07/13 10:24:37;;;;;;;4.97;2.88;;;29.30;99.90;;;;;;5082389;28;20124;-58
2022/07/13 10:27:26;;;;;;;5.57;2.80;;;29.60;99.90;;;;;;5101137;28;20674;-57
2022/07/13 10:30:18;;;;;;;4.63;2.72;;;29.30;99.90;;;;;;5102009;28;20062;-58
2022/07/13 10:32:44;;;;;;;6.35;3.55;;;29.10;99.90;;;;;;5090784;28;20054;-58
2022/07/13 10:35:17;;;;;;;4.38;2.90;;;29.20;99.90;;;;;;5117094;27;20051;-57
2022/07/13 10:37:58;;;;;;;4.45;2.35;;;29.70;99.90;;;;;;5118951;27;20043;-57
2022/07/13 10:40:29;;;;;;;4.72;2.50;;;29.60;99.90;;;;;;5102698;27;20554;-57
2022/07/13 10:42:57;;;;;;;5.00;1.92;;;29.60;99.90;;;;;;5095483;27;20047;-58
2022/07/13 10:45:34;;;;;;;3.20;2.17;;;29.60;99.90;;;;;;5107426;27;20488;-57
2022/07/13 10:48:06;;;;;;;3.35;1.83;;;30.10;99.90;;;;;;5101087;28;20039;-57
2022/07/13 10:50:43;;;;;;;2.88;1.70;;;29.80;99.90;;;;;;5092888;27;20050;-57
2022/07/13 10:53:09;;;;;;;3.60;1.77;;;29.80;99.90;;;;;;5105489;27;20138;-57
2022/07/13 10:55:35;;;;;;;3.63;2.05;;;29.60;99.90;;;;;;5065465;28;20162;-57
2022/07/13 10:58:29;;;;;;;5.53;2.08;;;29.40;99.90;;;;;;5097507;27;20696;-57
2022/07/13 11:00:56;;;;;;;3.20;1.67;;;29.70;99.90;;;;;;5074760;28;20059;-57
2022/07/13 11:03:43;;;;;;;4.93;1.77;;;29.80;99.90;;;;;;5100507;28;20035;-58
2022/07/13 11:06:14;;;;;;;2.55;1.67;;;30.10;99.90;;;;;;5102822;27;20050;-57
2022/07/13 11:08:40;;;;;;;3.13;1.75;;;30.00;99.90;;;;;;5094703;28;20079;-60
2022/07/13 11:11:17;;;;;;;3.65;2.10;;;30.10;99.90;;;;;;5099599;28;20048;-58
2022/07/13 11:13:45;;;;;;;2.35;1.60;;;30.10;99.90;;;;;;5100892;28;20536;-57
2022/07/13 11:16:13;;;;;;;5.57;1.92;;;29.80;99.90;;;;;;5100711;28;20130;-57
2022/07/13 11:18:40;;;;;;;2.65;1.60;;;29.80;99.90;;;;;;5099859;27;20059;-57
2022/07/13 11:21:14;;;;;;;3.72;1.50;;;30.00;99.90;;;;;;5112803;28;20077;-57
2022/07/13 11:26:47;;;;;;;3.28;1.80;;;30.10;99.90;;;;;;5112516;28;19923;-57
2022/07/13 11:29:31;;;;;;;3.42;1.77;;;30.40;99.90;;;;;;5120810;28;20050;-58
2022/07/13 11:32:01;;;;;;;2.60;1.60;;;30.50;99.90;;;;;;5102827;28;20068;-58
2022/07/13 11:34:28;;;;;;;2.90;1.92;;;30.50;99.90;;;;;;5085787;28;20059;-57
2022/07/13 11:36:55;;;;;;;2.72;1.80;;;30.10;99.90;;;;;;5103837;28;20439;-57
2022/07/13 11:39:24;;;;;;;3.42;1.80;;;30.60;99.90;;;;;;5087043;28;20051;-58
2022/07/13 11:41:51;;;;;;;2.80;1.63;;;30.50;99.90;;;;;;5105677;28;20104;-58
2022/07/13 11:44:37;;;;;;;4.97;1.88;;;30.40;99.90;;;;;;5104849;28;20059;-56
2022/07/13 11:47:04;;;;;;;3.58;1.75;;;30.10;99.90;;;;;;5105806;28;20364;-58
2022/07/13 11:49:46;;;;;;;2.78;1.80;;;29.90;99.90;;;;;;5105403;28;20043;-57
2022/07/13 11:52:25;;;;;;;5.30;1.67;;;29.80;99.90;;;;;;5104820;28;20402;-57
2022/07/13 11:55:05;;;;;;;3.70;1.85;;;30.00;99.90;;;;;;5105499;28;20126;-58
2022/07/13 11:57:32;;;;;;;3.58;2.10;;;29.70;99.90;;;;;;5086926;28;20562;-58
2022/07/13 12:00:16;;;;;;;2.80;1.90;;;29.30;99.90;;;;;;5105539;28;20040;-57
2022/07/13 12:02:42;;;;;;;3.63;1.77;;;29.30;99.90;;;;;;5105557;28;20043;-58
2022/07/13 12:05:08;;;;;;;4.10;2.00;;;29.60;99.90;;;;;;5105160;28;20119;-58
2022/07/13 12:07:34;;;;;;;5.10;2.03;;;29.90;99.90;;;;;;5119521;27;20084;-58
2022/07/13 12:10:01;;;;;;;3.65;1.83;;;29.60;99.90;;;;;;5125083;27;20035;-58
2022/07/13 12:12:32;;;;;;;3.15;2.03;;;29.60;99.90;;;;;;5125360;27;20451;-58
2022/07/13 12:14:58;;;;;;;4.18;1.70;;;29.40;99.90;;;;;;5125321;27;20039;-58
2022/07/13 12:17:27;;;;;;;2.65;2.03;;;29.00;99.90;;;;;;5106895;27;20397;-58
2022/07/13 12:20:07;;;;;;;4.38;2.20;;;28.90;99.90;;;;;;5125549;27;20051;-59
2022/07/13 12:22:33;;;;;;;4.60;2.22;;;29.20;99.90;;;;;;5124422;27;20054;-58
2022/07/13 12:24:59;;;;;;;6.13;1.95;;;28.70;99.90;;;;;;5125056;27;20501;-58
2022/07/13 12:27:31;;;;;;;6.97;2.10;;;28.80;99.90;;;;;;5124809;27;20485;-58
2022/07/13 12:30:08;;;;;;;2.53;1.90;;;28.50;99.90;;;;;;5125467;27;20104;-58
2022/07/13 12:32:55;;;;;;;4.65;2.10;;;28.20;99.90;;;;;;5124625;27;20075;-58
2022/07/13 12:35:20;;;;;;;3.08;2.47;;;28.60;99.90;;;;;;5124428;27;20073;-57
2022/07/13 12:37:52;;;;;;;4.40;2.78;;;28.60;99.90;;;;;;5123912;27;20043;-58
2022/07/13 12:40:43;;;;;;;3.70;2.13;;;28.50;99.90;;;;;;5124863;27;20081;-58
2022/07/13 12:43:21;;;;;;;5.88;2.00;;;28.60;99.90;;;;;;5106054;27;20090;-60
2022/07/13 12:45:57;;;;;;;4.68;2.20;;;28.90;99.90;;;;;;5124345;27;20126;-59
2022/07/13 12:48:25;;;;;;;5.15;2.00;;;28.60;99.90;;;;;;5124723;27;20133;-58
2022/07/13 12:51:13;;;;;;;3.95;2.05;;;28.50;99.90;;;;;;5123701;27;20042;-58
2022/07/13 12:53:47;;;;;;;3.03;1.90;;;28.40;99.90;;;;;;5124659;27;20096;-58
2022/07/13 12:56:13;;;;;;;3.53;2.05;;;28.70;99.90;;;;;;5124411;27;20047;-57
2022/07/13 12:58:47;;;;;;;4.05;1.98;;;28.50;99.90;;;;;;5124367;27;20046;-57